sensor_id;sensor_type;location;lat;lon;timestamp;pressure;altitude;pressure_sealevel;temperature;humidity
7335;BME280;3708;42.632;23.378;2023-04-02T00:02:34;93437.00;;;10.68;47.27
7335;BME280;3708;42.632;23.378;2023-04-02T00:05:22;93428.78;;;11.01;46.94
7335;BME280;3708;42.632;23.378;2023-04-02T00:07:56;93428.19;;;10.77;47.30
7335;BME280;3708;42.632;23.378;2023-04-02T00:10:28;93434.63;;;10.48;47.79
7335;BME280;3708;42.632;23.378;2023-04-02T00:13:01;93427.78;;;10.59;48.03
7335;BME280;3708;42.632;23.378;2023-04-02T00:15:29;93440.28;;;10.81;46.48
7335;BME280;3708;42.632;23.378;2023-04-02T00:17:57;93427.19;;;10.50;46.93
7335;BME280;3708;42.632;23.378;2023-04-02T00:20:26;93438.69;;;10.92;45.98
7335;BME280;3708;42.632;23.378;2023-04-02T00:22:53;93460.31;;;10.58;46.87
7335;BME280;3708;42.632;23.378;2023-04-02T00:25:21;93429.75;;;10.78;46.95
7335;BME280;3708;42.632;23.378;2023-04-02T00:27:48;93421.13;;;11.27;45.16
7335;BME280;3708;42.632;23.378;2023-04-02T00:30:15;93420.03;;;10.78;46.39
7335;BME280;3708;42.632;23.378;2023-04-02T00:32:42;93401.59;;;10.59;46.65
7335;BME280;3708;42.632;23.378;2023-04-02T00:35:12;93405.66;;;10.41;47.34
7335;BME280;3708;42.632;23.378;2023-04-02T00:37:43;93409.19;;;10.64;46.95
7335;BME280;3708;42.632;23.378;2023-04-02T00:40:18;93421.19;;;10.34;47.10
7335;BME280;3708;42.632;23.378;2023-04-02T00:42:47;93424.06;;;10.60;47.40
7335;BME280;3708;42.632;23.378;2023-04-02T00:45:21;93413.59;;;10.60;47.23
7335;BME280;3708;42.632;23.378;2023-04-02T00:47:49;93407.47;;;10.25;47.65
7335;BME280;3708;42.632;23.378;2023-04-02T00:50:25;93411.16;;;10.67;46.72
7335;BME280;3708;42.632;23.378;2023-04-02T00:52:55;93404.13;;;10.55;47.18
7335;BME280;3708;42.632;23.378;2023-04-02T00:55:26;93410.94;;;10.91;46.40
7335;BME280;3708;42.632;23.378;2023-04-02T00:57:59;93405.47;;;10.34;47.51
7335;BME280;3708;42.632;23.378;2023-04-02T01:00:29;93409.88;;;10.61;47.49
7335;BME280;3708;42.632;23.378;2023-04-02T01:06:04;93407.06;;;11.35;45.68
7335;BME280;3708;42.632;23.378;2023-04-02T01:09:07;93405.91;;;11.17;45.75
7335;BME280;3708;42.632;23.378;2023-04-02T01:12:00;93404.91;;;10.56;46.91
7335;BME280;3708;42.632;23.378;2023-04-02T01:14:45;93414.00;;;10.46;47.06
7335;BME280;3708;42.632;23.378;2023-04-02T01:17:30;93413.94;;;10.58;46.89
7335;BME280;3708;42.632;23.378;2023-04-02T01:20:18;93422.13;;;11.38;45.25
7335;BME280;3708;42.632;23.378;2023-04-02T01:22:54;93421.50;;;11.99;44.52
7335;BME280;3708;42.632;23.378;2023-04-02T01:25:25;93413.63;;;11.99;45.91
7335;BME280;3708;42.632;23.378;2023-04-02T01:27:59;93424.47;;;11.78;46.89
7335;BME280;3708;42.632;23.378;2023-04-02T01:30:32;93425.34;;;11.67;48.06
7335;BME280;3708;42.632;23.378;2023-04-02T01:33:00;93418.22;;;11.32;49.25
7335;BME280;3708;42.632;23.378;2023-04-02T01:35:31;93424.81;;;11.07;50.07
7335;BME280;3708;42.632;23.378;2023-04-02T01:38:05;93427.72;;;10.87;50.15
7335;BME280;3708;42.632;23.378;2023-04-02T01:40:38;93415.16;;;10.96;50.33
7335;BME280;3708;42.632;23.378;2023-04-02T01:43:14;93429.13;;;10.68;50.77
7335;BME280;3708;42.632;23.378;2023-04-02T01:45:43;93422.81;;;10.54;50.55
7335;BME280;3708;42.632;23.378;2023-04-02T01:48:13;93425.56;;;10.02;51.04
7335;BME280;3708;42.632;23.378;2023-04-02T01:50:42;93422.34;;;9.93;51.12
7335;BME280;3708;42.632;23.378;2023-04-02T01:53:12;93420.41;;;10.06;51.29
7335;BME280;3708;42.632;23.378;2023-04-02T01:55:43;93429.03;;;10.34;50.08
7335;BME280;3708;42.632;23.378;2023-04-02T01:58:12;93417.97;;;10.87;49.76
7335;BME280;3708;42.632;23.378;2023-04-02T02:00:45;93415.63;;;10.82;51.09
7335;BME280;3708;42.632;23.378;2023-04-02T02:03:15;93414.94;;;10.85;51.32
7335;BME280;3708;42.632;23.378;2023-04-02T02:05:42;93413.59;;;10.60;52.21
7335;BME280;3708;42.632;23.378;2023-04-02T02:08:22;93418.22;;;10.51;52.85
7335;BME280;3708;42.632;23.378;2023-04-02T02:10:51;93421.78;;;10.43;52.92
7335;BME280;3708;42.632;23.378;2023-04-02T02:13:19;93426.66;;;10.01;54.36
7335;BME280;3708;42.632;23.378;2023-04-02T02:15:48;93426.06;;;10.20;54.33
7335;BME280;3708;42.632;23.378;2023-04-02T02:18:19;93423.59;;;10.27;54.53
7335;BME280;3708;42.632;23.378;2023-04-02T02:20:48;93425.56;;;10.30;54.04
7335;BME280;3708;42.632;23.378;2023-04-02T02:23:15;93423.94;;;10.25;54.19
7335;BME280;3708;42.632;23.378;2023-04-02T02:25:43;93427.28;;;10.10;54.22
7335;BME280;3708;42.632;23.378;2023-04-02T02:28:16;93419.88;;;9.84;54.69
7335;BME280;3708;42.632;23.378;2023-04-02T02:30:45;93426.44;;;9.78;55.40
7335;BME280;3708;42.632;23.378;2023-04-02T02:33:17;93416.69;;;9.63;55.87
7335;BME280;3708;42.632;23.378;2023-04-02T02:35:50;93423.97;;;9.70;55.98
7335;BME280;3708;42.632;23.378;2023-04-02T02:38:38;93414.50;;;9.65;56.11
7335;BME280;3708;42.632;23.378;2023-04-02T02:41:09;93411.31;;;9.72;56.26
7335;BME280;3708;42.632;23.378;2023-04-02T02:43:41;93410.25;;;9.61;56.64
7335;BME280;3708;42.632;23.378;2023-04-02T02:46:13;93412.34;;;9.83;56.38
7335;BME280;3708;42.632;23.378;2023-04-02T02:48:44;93415.19;;;9.78;56.36
7335;BME280;3708;42.632;23.378;2023-04-02T02:51:17;93421.72;;;9.84;56.59
7335;BME280;3708;42.632;23.378;2023-04-02T02:53:49;93419.09;;;9.56;56.68
7335;BME280;3708;42.632;23.378;2023-04-02T02:56:19;93418.44;;;9.59;57.11
7335;BME280;3708;42.632;23.378;2023-04-02T02:58:50;93413.09;;;9.56;57.00
7335;BME280;3708;42.632;23.378;2023-04-02T03:01:17;93409.53;;;9.48;57.01
7335;BME280;3708;42.632;23.378;2023-04-02T03:03:46;93406.22;;;9.51;56.72
7335;BME280;3708;42.632;23.378;2023-04-02T03:06:15;93406.78;;;9.57;56.72
7335;BME280;3708;42.632;23.378;2023-04-02T03:08:50;93416.81;;;9.82;56.32
7335;BME280;3708;42.632;23.378;2023-04-02T03:11:25;93424.03;;;9.73;56.10
7335;BME280;3708;42.632;23.378;2023-04-02T03:13:56;93424.03;;;9.73;56.30
7335;BME280;3708;42.632;23.378;2023-04-02T03:16:27;93418.94;;;9.65;56.25
7335;BME280;3708;42.632;23.378;2023-04-02T03:19:01;93435.06;;;9.67;56.37
7335;BME280;3708;42.632;23.378;2023-04-02T03:21:36;93424.09;;;9.61;56.47
7335;BME280;3708;42.632;23.378;2023-04-02T03:24:11;93439.41;;;9.35;56.99
7335;BME280;3708;42.632;23.378;2023-04-02T03:26:44;93436.09;;;9.50;57.15
7335;BME280;3708;42.632;23.378;2023-04-02T03:29:16;93430.44;;;9.48;56.90
7335;BME280;3708;42.632;23.378;2023-04-02T03:31:47;93429.75;;;9.51;56.78
7335;BME280;3708;42.632;23.378;2023-04-02T03:34:21;93439.06;;;9.37;57.46
7335;BME280;3708;42.632;23.378;2023-04-02T03:36:55;93442.34;;;9.34;57.63
7335;BME280;3708;42.632;23.378;2023-04-02T03:39:27;93438.34;;;9.64;56.92
7335;BME280;3708;42.632;23.378;2023-04-02T03:42:00;93438.66;;;9.74;56.79
7335;BME280;3708;42.632;23.378;2023-04-02T03:44:30;93441.28;;;9.62;56.26
7335;BME280;3708;42.632;23.378;2023-04-02T03:47:04;93445.31;;;9.60;56.69
7335;BME280;3708;42.632;23.378;2023-04-02T03:49:40;93459.03;;;9.69;56.49
7335;BME280;3708;42.632;23.378;2023-04-02T03:52:11;93450.63;;;9.75;56.40
7335;BME280;3708;42.632;23.378;2023-04-02T03:54:39;93449.00;;;9.71;56.25
7335;BME280;3708;42.632;23.378;2023-04-02T03:57:10;93448.47;;;9.65;56.12
7335;BME280;3708;42.632;23.378;2023-04-02T03:59:50;93442.81;;;9.63;56.47
7335;BME280;3708;42.632;23.378;2023-04-02T04:02:33;93437.25;;;9.25;57.37
7335;BME280;3708;42.632;23.378;2023-04-02T04:05:04;93437.03;;;9.58;56.96
7335;BME280;3708;42.632;23.378;2023-04-02T04:07:34;93436.78;;;9.75;56.43
7335;BME280;3708;42.632;23.378;2023-04-02T04:10:03;93442.47;;;9.65;56.11
7335;BME280;3708;42.632;23.378;2023-04-02T04:12:33;93445.75;;;9.62;56.61
7335;BME280;3708;42.632;23.378;2023-04-02T04:15:04;93432.78;;;9.65;56.57
7335;BME280;3708;42.632;23.378;2023-04-02T04:17:36;93442.00;;;9.75;56.32
7335;BME280;3708;42.632;23.378;2023-04-02T04:20:14;93447.41;;;9.94;55.98
7335;BME280;3708;42.632;23.378;2023-04-02T04:22:46;93453.59;;;9.62;56.27
7335;BME280;3708;42.632;23.378;2023-04-02T04:25:20;93459.41;;;9.55;56.06
7335;BME280;3708;42.632;23.378;2023-04-02T04:27:57;93462.88;;;9.47;56.57
7335;BME280;3708;42.632;23.378;2023-04-02T04:30:38;93462.25;;;9.50;56.20
7335;BME280;3708;42.632;23.378;2023-04-02T04:33:13;93462.31;;;9.54;56.61
7335;BME280;3708;42.632;23.378;2023-04-02T04:35:52;93471.38;;;9.56;56.38
7335;BME280;3708;42.632;23.378;2023-04-02T04:38:27;93467.41;;;9.74;56.05
7335;BME280;3708;42.632;23.378;2023-04-02T04:41:00;93473.84;;;9.65;55.75
7335;BME280;3708;42.632;23.378;2023-04-02T04:43:33;93469.47;;;9.81;55.82
7335;BME280;3708;42.632;23.378;2023-04-02T04:46:07;93476.22;;;9.82;55.79
7335;BME280;3708;42.632;23.378;2023-04-02T04:48:37;93477.50;;;9.88;55.47
7335;BME280;3708;42.632;23.378;2023-04-02T04:51:16;93483.38;;;9.57;55.37
7335;BME280;3708;42.632;23.378;2023-04-02T04:53:45;93475.84;;;9.56;55.66
7335;BME280;3708;42.632;23.378;2023-04-02T04:56:16;93485.56;;;9.19;56.66
7335;BME280;3708;42.632;23.378;2023-04-02T04:58:48;93475.75;;;9.52;56.18
7335;BME280;3708;42.632;23.378;2023-04-02T05:01:18;93486.59;;;9.66;55.66
7335;BME280;3708;42.632;23.378;2023-04-02T05:03:51;93476.75;;;9.87;55.54
7335;BME280;3708;42.632;23.378;2023-04-02T05:06:31;93479.31;;;9.99;54.91
7335;BME280;3708;42.632;23.378;2023-04-02T05:09:03;93474.94;;;10.04;54.67
7335;BME280;3708;42.632;23.378;2023-04-02T05:11:36;93476.66;;;10.12;54.77
7335;BME280;3708;42.632;23.378;2023-04-02T05:14:06;93482.94;;;10.23;54.43
7335;BME280;3708;42.632;23.378;2023-04-02T05:16:40;93496.03;;;10.23;53.96
7335;BME280;3708;42.632;23.378;2023-04-02T05:19:11;93480.09;;;10.28;53.94
7335;BME280;3708;42.632;23.378;2023-04-02T05:21:47;93485.53;;;10.35;53.67
7335;BME280;3708;42.632;23.378;2023-04-02T05:24:35;93483.94;;;10.18;54.16
7335;BME280;3708;42.632;23.378;2023-04-02T05:27:10;93492.66;;;10.22;53.67
7335;BME280;3708;42.632;23.378;2023-04-02T05:29:41;93493.88;;;10.40;53.54
7335;BME280;3708;42.632;23.378;2023-04-02T05:32:14;93502.16;;;10.42;53.31
7335;BME280;3708;42.632;23.378;2023-04-02T05:34:47;93500.25;;;10.55;53.55
7335;BME280;3708;42.632;23.378;2023-04-02T05:37:19;93496.38;;;10.64;53.46
7335;BME280;3708;42.632;23.378;2023-04-02T05:39:52;93501.88;;;10.75;53.27
7335;BME280;3708;42.632;23.378;2023-04-02T05:42:23;93502.63;;;10.60;53.35
7335;BME280;3708;42.632;23.378;2023-04-02T05:44:58;93514.06;;;10.83;53.31
7335;BME280;3708;42.632;23.378;2023-04-02T05:47:30;93493.94;;;11.03;52.83
7335;BME280;3708;42.632;23.378;2023-04-02T05:50:10;93508.00;;;10.95;52.36
7335;BME280;3708;42.632;23.378;2023-04-02T05:52:45;93510.34;;;10.84;52.58
7335;BME280;3708;42.632;23.378;2023-04-02T05:55:33;93510.28;;;11.27;52.36
7335;BME280;3708;42.632;23.378;2023-04-02T05:58:05;93513.44;;;11.36;51.61
7335;BME280;3708;42.632;23.378;2023-04-02T06:00:50;93517.06;;;11.63;51.47
7335;BME280;3708;42.632;23.378;2023-04-02T06:03:24;93525.00;;;11.82;50.74
7335;BME280;3708;42.632;23.378;2023-04-02T06:05:58;93528.19;;;11.91;50.30
7335;BME280;3708;42.632;23.378;2023-04-02T06:08:31;93527.22;;;11.99;50.39
7335;BME280;3708;42.632;23.378;2023-04-02T06:11:06;93526.91;;;12.20;49.83
7335;BME280;3708;42.632;23.378;2023-04-02T06:13:35;93528.66;;;11.97;49.77
7335;BME280;3708;42.632;23.378;2023-04-02T06:16:03;93529.22;;;12.06;49.88
7335;BME280;3708;42.632;23.378;2023-04-02T06:18:31;93523.91;;;12.41;50.53
7335;BME280;3708;42.632;23.378;2023-04-02T06:21:00;93526.03;;;12.73;49.33
7335;BME280;3708;42.632;23.378;2023-04-02T06:23:31;93533.44;;;12.68;48.68
7335;BME280;3708;42.632;23.378;2023-04-02T06:26:04;93526.97;;;12.84;48.96
7335;BME280;3708;42.632;23.378;2023-04-02T06:28:39;93529.44;;;12.96;49.10
7335;BME280;3708;42.632;23.378;2023-04-02T06:31:21;93529.13;;;13.21;48.23
7335;BME280;3708;42.632;23.378;2023-04-02T06:33:49;93526.78;;;13.38;48.22
7335;BME280;3708;42.632;23.378;2023-04-02T06:36:19;93525.91;;;13.08;47.72
7335;BME280;3708;42.632;23.378;2023-04-02T06:38:48;93523.25;;;13.05;47.49
7335;BME280;3708;42.632;23.378;2023-04-02T06:41:19;93526.53;;;13.01;47.50
7335;BME280;3708;42.632;23.378;2023-04-02T06:43:50;93532.50;;;13.21;47.58
7335;BME280;3708;42.632;23.378;2023-04-02T06:46:22;93528.31;;;13.17;46.91
7335;BME280;3708;42.632;23.378;2023-04-02T06:48:55;93525.97;;;13.12;46.17
7335;BME280;3708;42.632;23.378;2023-04-02T06:51:26;93530.25;;;13.00;46.74
7335;BME280;3708;42.632;23.378;2023-04-02T06:53:55;93525.72;;;13.43;46.63
7335;BME280;3708;42.632;23.378;2023-04-02T06:56:31;93525.16;;;13.56;46.19
7335;BME280;3708;42.632;23.378;2023-04-02T06:59:02;93530.78;;;13.81;45.94
7335;BME280;3708;42.632;23.378;2023-04-02T07:01:35;93541.94;;;13.71;45.86
7335;BME280;3708;42.632;23.378;2023-04-02T07:04:02;93537.41;;;13.71;45.62
7335;BME280;3708;42.632;23.378;2023-04-02T07:06:29;93548.03;;;14.05;45.17
7335;BME280;3708;42.632;23.378;2023-04-02T07:08:57;93540.56;;;14.36;44.71
7335;BME280;3708;42.632;23.378;2023-04-02T07:11:24;93537.22;;;14.73;43.93
7335;BME280;3708;42.632;23.378;2023-04-02T07:13:51;93539.47;;;14.71;43.39
7335;BME280;3708;42.632;23.378;2023-04-02T07:16:20;93546.22;;;15.05;42.80
7335;BME280;3708;42.632;23.378;2023-04-02T07:18:48;93548.06;;;15.01;41.59
7335;BME280;3708;42.632;23.378;2023-04-02T07:21:15;93547.47;;;15.18;41.04
7335;BME280;3708;42.632;23.378;2023-04-02T07:23:42;93549.25;;;15.07;40.98
7335;BME280;3708;42.632;23.378;2023-04-02T07:26:14;93549.75;;;15.23;41.24
7335;BME280;3708;42.632;23.378;2023-04-02T07:28:42;93553.72;;;15.43;41.45
7335;BME280;3708;42.632;23.378;2023-04-02T07:31:15;93555.81;;;15.67;41.38
7335;BME280;3708;42.632;23.378;2023-04-02T07:33:43;93554.88;;;15.96;40.05
7335;BME280;3708;42.632;23.378;2023-04-02T07:36:13;93551.50;;;15.99;39.22
7335;BME280;3708;42.632;23.378;2023-04-02T07:38:40;93557.13;;;15.98;39.29
7335;BME280;3708;42.632;23.378;2023-04-02T07:41:08;93558.13;;;15.32;40.01
7335;BME280;3708;42.632;23.378;2023-04-02T07:43:36;93557.75;;;14.90;40.36
7335;BME280;3708;42.632;23.378;2023-04-02T07:46:07;93552.88;;;14.59;40.45
7335;BME280;3708;42.632;23.378;2023-04-02T07:48:34;93554.72;;;14.28;41.31
7335;BME280;3708;42.632;23.378;2023-04-02T07:51:01;93564.44;;;13.95;42.52
7335;BME280;3708;42.632;23.378;2023-04-02T07:53:30;93550.88;;;14.48;41.62
7335;BME280;3708;42.632;23.378;2023-04-02T07:55:58;93548.78;;;14.65;41.23
7335;BME280;3708;42.632;23.378;2023-04-02T07:58:25;93549.34;;;14.47;41.42
7335;BME280;3708;42.632;23.378;2023-04-02T08:00:53;93555.38;;;14.18;42.00
7335;BME280;3708;42.632;23.378;2023-04-02T08:03:20;93561.47;;;13.96;42.72
7335;BME280;3708;42.632;23.378;2023-04-02T08:05:51;93551.72;;;14.93;41.62
7335;BME280;3708;42.632;23.378;2023-04-02T08:08:18;93552.09;;;14.58;40.33
7335;BME280;3708;42.632;23.378;2023-04-02T08:10:45;93563.06;;;13.78;40.82
7335;BME280;3708;42.632;23.378;2023-04-02T08:13:13;93561.34;;;13.63;40.47
7335;BME280;3708;42.632;23.378;2023-04-02T08:15:40;93564.97;;;13.55;40.45
7335;BME280;3708;42.632;23.378;2023-04-02T08:18:10;93563.78;;;14.01;39.26
7335;BME280;3708;42.632;23.378;2023-04-02T08:20:39;93560.53;;;13.59;40.46
7335;BME280;3708;42.632;23.378;2023-04-02T08:23:12;93551.53;;;13.60;40.44
7335;BME280;3708;42.632;23.378;2023-04-02T08:25:41;93565.13;;;14.18;39.51
7335;BME280;3708;42.632;23.378;2023-04-02T08:28:10;93554.03;;;13.75;40.89
7335;BME280;3708;42.632;23.378;2023-04-02T08:30:37;93554.41;;;14.60;40.03
7335;BME280;3708;42.632;23.378;2023-04-02T08:33:04;93561.25;;;14.68;39.54
7335;BME280;3708;42.632;23.378;2023-04-02T08:35:33;93564.69;;;14.72;38.82
7335;BME280;3708;42.632;23.378;2023-04-02T08:38:00;93572.09;;;14.29;38.84
7335;BME280;3708;42.632;23.378;2023-04-02T08:40:31;93574.97;;;14.21;41.42
7335;BME280;3708;42.632;23.378;2023-04-02T08:43:16;93566.56;;;14.71;40.83
7335;BME280;3708;42.632;23.378;2023-04-02T08:45:53;93575.44;;;14.89;38.31
7335;BME280;3708;42.632;23.378;2023-04-02T08:48:22;93564.59;;;14.98;37.90
7335;BME280;3708;42.632;23.378;2023-04-02T08:50:51;93567.31;;;14.72;38.63
7335;BME280;3708;42.632;23.378;2023-04-02T08:53:20;93568.44;;;14.37;38.19
7335;BME280;3708;42.632;23.378;2023-04-02T08:55:54;93560.09;;;14.65;37.95
7335;BME280;3708;42.632;23.378;2023-04-02T08:58:31;93563.94;;;15.08;38.03
7335;BME280;3708;42.632;23.378;2023-04-02T09:01:02;93558.84;;;14.26;38.31
7335;BME280;3708;42.632;23.378;2023-04-02T09:03:31;93560.59;;;14.78;38.84
7335;BME280;3708;42.632;23.378;2023-04-02T09:06:02;93556.09;;;14.78;38.64
7335;BME280;3708;42.632;23.378;2023-04-02T09:08:32;93557.16;;;15.51;37.63
7335;BME280;3708;42.632;23.378;2023-04-02T09:11:03;93540.50;;;15.94;36.46
7335;BME280;3708;42.632;23.378;2023-04-02T09:13:33;93561.34;;;15.55;37.12
7335;BME280;3708;42.632;23.378;2023-04-02T09:16:07;93580.56;;;15.99;35.25
7335;BME280;3708;42.632;23.378;2023-04-02T09:18:36;93550.47;;;16.18;35.47
7335;BME280;3708;42.632;23.378;2023-04-02T09:21:19;93572.00;;;14.85;36.88
7335;BME280;3708;42.632;23.378;2023-04-02T09:23:52;93561.69;;;15.10;36.46
7335;BME280;3708;42.632;23.378;2023-04-02T09:26:22;93564.72;;;16.07;35.28
7335;BME280;3708;42.632;23.378;2023-04-02T09:28:50;93565.06;;;15.47;36.54
7335;BME280;3708;42.632;23.378;2023-04-02T09:31:22;93581.22;;;15.89;34.57
7335;BME280;3708;42.632;23.378;2023-04-02T09:33:52;93579.56;;;14.90;35.48
7335;BME280;3708;42.632;23.378;2023-04-02T09:36:34;93560.06;;;15.82;34.21
7335;BME280;3708;42.632;23.378;2023-04-02T09:39:04;93559.53;;;16.21;33.77
7335;BME280;3708;42.632;23.378;2023-04-02T09:41:34;93551.84;;;16.66;33.76
7335;BME280;3708;42.632;23.378;2023-04-02T09:44:26;93553.56;;;16.34;34.25
7335;BME280;3708;42.632;23.378;2023-04-02T09:46:55;93566.59;;;16.02;34.13
7335;BME280;3708;42.632;23.378;2023-04-02T09:49:26;93557.06;;;15.87;34.18
7335;BME280;3708;42.632;23.378;2023-04-02T09:52:15;93541.41;;;15.61;35.04
7335;BME280;3708;42.632;23.378;2023-04-02T09:54:45;93548.19;;;15.59;35.61
7335;BME280;3708;42.632;23.378;2023-04-02T09:57:20;93539.72;;;16.55;34.25
7335;BME280;3708;42.632;23.378;2023-04-02T10:00:10;93543.44;;;15.78;34.49
7335;BME280;3708;42.632;23.378;2023-04-02T10:02:38;93541.59;;;15.82;34.75
7335;BME280;3708;42.632;23.378;2023-04-02T10:05:16;93543.97;;;16.91;33.73
7335;BME280;3708;42.632;23.378;2023-04-02T10:08:05;93541.09;;;16.35;33.22
7335;BME280;3708;42.632;23.378;2023-04-02T10:10:36;93554.41;;;15.84;32.61
7335;BME280;3708;42.632;23.378;2023-04-02T10:13:08;93555.06;;;15.70;33.05
7335;BME280;3708;42.632;23.378;2023-04-02T10:15:42;93531.38;;;15.81;34.28
7335;BME280;3708;42.632;23.378;2023-04-02T10:18:15;93529.94;;;15.90;34.51
7335;BME280;3708;42.632;23.378;2023-04-02T10:20:48;93534.06;;;16.67;33.05
7335;BME280;3708;42.632;23.378;2023-04-02T10:23:19;93542.03;;;15.98;32.13
7335;BME280;3708;42.632;23.378;2023-04-02T10:25:53;93527.56;;;15.71;33.95
7335;BME280;3708;42.632;23.378;2023-04-02T10:28:32;93544.34;;;16.07;32.00
7335;BME280;3708;42.632;23.378;2023-04-02T10:31:11;93537.28;;;16.29;31.83
7335;BME280;3708;42.632;23.378;2023-04-02T10:33:45;93539.69;;;15.83;32.66
7335;BME280;3708;42.632;23.378;2023-04-02T10:36:23;93533.41;;;15.51;33.33
7335;BME280;3708;42.632;23.378;2023-04-02T10:39:00;93532.69;;;15.50;33.75
7335;BME280;3708;42.632;23.378;2023-04-02T10:41:32;93536.44;;;15.49;33.50
7335;BME280;3708;42.632;23.378;2023-04-02T10:44:17;93539.59;;;15.65;32.89
7335;BME280;3708;42.632;23.378;2023-04-02T10:46:59;93528.53;;;16.11;35.03
7335;BME280;3708;42.632;23.378;2023-04-02T10:49:39;93531.59;;;16.16;35.40
7335;BME280;3708;42.632;23.378;2023-04-02T10:52:19;93525.91;;;17.49;33.70
7335;BME280;3708;42.632;23.378;2023-04-02T10:54:49;93540.69;;;17.68;33.18
7335;BME280;3708;42.632;23.378;2023-04-02T10:57:29;93522.13;;;17.22;33.98
7335;BME280;3708;42.632;23.378;2023-04-02T11:00:06;93528.94;;;17.62;33.51
7335;BME280;3708;42.632;23.378;2023-04-02T11:02:46;93516.34;;;18.26;32.68
7335;BME280;3708;42.632;23.378;2023-04-02T11:05:24;93499.25;;;18.41;32.89
7335;BME280;3708;42.632;23.378;2023-04-02T11:08:00;93528.94;;;17.41;33.32
7335;BME280;3708;42.632;23.378;2023-04-02T11:10:33;93528.59;;;17.53;33.31
7335;BME280;3708;42.632;23.378;2023-04-02T11:13:07;93511.50;;;17.05;33.50
7335;BME280;3708;42.632;23.378;2023-04-02T11:15:38;93516.81;;;17.96;33.11
7335;BME280;3708;42.632;23.378;2023-04-02T11:18:05;93515.94;;;18.38;32.99
7335;BME280;3708;42.632;23.378;2023-04-02T11:21:04;93514.41;;;18.44;32.60
7335;BME280;3708;42.632;23.378;2023-04-02T11:23:56;93514.53;;;18.02;32.65
7335;BME280;3708;42.632;23.378;2023-04-02T11:26:38;93514.78;;;18.46;32.22
7335;BME280;3708;42.632;23.378;2023-04-02T11:29:17;93517.91;;;17.00;34.17
7335;BME280;3708;42.632;23.378;2023-04-02T11:31:48;93516.72;;;16.69;34.65
7335;BME280;3708;42.632;23.378;2023-04-02T11:37:35;93504.66;;;18.20;32.23
7335;BME280;3708;42.632;23.378;2023-04-02T11:40:41;93509.25;;;17.98;33.13
7335;BME280;3708;42.632;23.378;2023-04-02T11:43:54;93502.81;;;17.96;32.87
7335;BME280;3708;42.632;23.378;2023-04-02T11:46:45;93497.75;;;18.33;33.01
7335;BME280;3708;42.632;23.378;2023-04-02T11:49:38;93508.88;;;17.86;32.92
7335;BME280;3708;42.632;23.378;2023-04-02T11:52:23;93522.88;;;17.47;33.27
7335;BME280;3708;42.632;23.378;2023-04-02T11:55:00;93512.25;;;18.11;32.68
7335;BME280;3708;42.632;23.378;2023-04-02T11:57:38;93502.84;;;18.86;31.73
7335;BME280;3708;42.632;23.378;2023-04-02T12:00:20;93495.19;;;18.98;30.87
7335;BME280;3708;42.632;23.378;2023-04-02T12:02:59;93487.03;;;19.27;30.25
7335;BME280;3708;42.632;23.378;2023-04-02T12:05:34;93487.72;;;19.82;29.64
7335;BME280;3708;42.632;23.378;2023-04-02T12:08:18;93503.59;;;19.48;29.67
7335;BME280;3708;42.632;23.378;2023-04-02T12:10:52;93500.78;;;18.39;30.78
7335;BME280;3708;42.632;23.378;2023-04-02T12:13:50;93493.19;;;19.17;30.17
7335;BME280;3708;42.632;23.378;2023-04-02T12:16:18;93485.78;;;19.49;29.82
7335;BME280;3708;42.632;23.378;2023-04-02T12:18:48;93488.78;;;19.47;29.75
7335;BME280;3708;42.632;23.378;2023-04-02T12:21:20;93485.88;;;19.79;29.76
7335;BME280;3708;42.632;23.378;2023-04-02T12:23:51;93484.00;;;18.66;30.75
7335;BME280;3708;42.632;23.378;2023-04-02T12:26:29;93479.97;;;19.10;30.38
7335;BME280;3708;42.632;23.378;2023-04-02T12:29:28;93493.28;;;18.19;31.11
7335;BME280;3708;42.632;23.378;2023-04-02T12:31:58;93489.59;;;17.53;31.90
7335;BME280;3708;42.632;23.378;2023-04-02T12:34:27;93493.00;;;17.43;32.58
7335;BME280;3708;42.632;23.378;2023-04-02T12:36:56;93492.22;;;17.04;33.61
7335;BME280;3708;42.632;23.378;2023-04-02T12:39:27;93493.28;;;16.71;33.97
7335;BME280;3708;42.632;23.378;2023-04-02T12:41:55;93503.50;;;16.76;33.53
7335;BME280;3708;42.632;23.378;2023-04-02T12:44:24;93494.13;;;17.46;32.64
7335;BME280;3708;42.632;23.378;2023-04-02T12:46:51;93482.78;;;17.81;31.90
7335;BME280;3708;42.632;23.378;2023-04-02T12:49:24;93487.28;;;17.94;31.74
7335;BME280;3708;42.632;23.378;2023-04-02T12:51:54;93486.88;;;18.13;31.23
7335;BME280;3708;42.632;23.378;2023-04-02T12:54:21;93486.47;;;18.15;31.47
7335;BME280;3708;42.632;23.378;2023-04-02T12:56:49;93480.81;;;18.06;31.36
7335;BME280;3708;42.632;23.378;2023-04-02T12:59:30;93465.06;;;18.71;30.75
7335;BME280;3708;42.632;23.378;2023-04-02T13:02:02;93464.16;;;19.47;29.81
7335;BME280;3708;42.632;23.378;2023-04-02T13:04:48;93453.53;;;19.84;29.03
7335;BME280;3708;42.632;23.378;2023-04-02T13:07:17;93457.19;;;20.01;28.58
7335;BME280;3708;42.632;23.378;2023-04-02T13:09:46;93466.16;;;20.14;28.77
7335;BME280;3708;42.632;23.378;2023-04-02T13:12:26;93462.69;;;20.81;27.84
7335;BME280;3708;42.632;23.378;2023-04-02T13:14:58;93462.13;;;20.36;27.51
7335;BME280;3708;42.632;23.378;2023-04-02T13:17:39;93453.47;;;21.15;27.04
7335;BME280;3708;42.632;23.378;2023-04-02T13:20:28;93451.06;;;22.33;25.82
7335;BME280;3708;42.632;23.378;2023-04-02T13:22:55;93459.53;;;22.48;25.45
7335;BME280;3708;42.632;23.378;2023-04-02T13:25:27;93443.84;;;23.05;24.69
7335;BME280;3708;42.632;23.378;2023-04-02T13:27:54;93467.50;;;21.89;25.91
7335;BME280;3708;42.632;23.378;2023-04-02T13:30:23;93457.34;;;22.04;25.54
7335;BME280;3708;42.632;23.378;2023-04-02T13:32:50;93449.81;;;22.77;25.08
7335;BME280;3708;42.632;23.378;2023-04-02T13:35:17;93459.31;;;22.39;25.16
7335;BME280;3708;42.632;23.378;2023-04-02T13:37:45;93466.81;;;21.62;25.25
7335;BME280;3708;42.632;23.378;2023-04-02T13:40:13;93456.53;;;21.37;25.79
7335;BME280;3708;42.632;23.378;2023-04-02T13:42:41;93461.28;;;21.72;25.52
7335;BME280;3708;42.632;23.378;2023-04-02T13:45:18;93457.72;;;21.36;25.72
7335;BME280;3708;42.632;23.378;2023-04-02T13:47:46;93469.41;;;21.65;25.42
7335;BME280;3708;42.632;23.378;2023-04-02T13:50:15;93456.53;;;21.37;25.77
7335;BME280;3708;42.632;23.378;2023-04-02T13:52:44;93458.75;;;21.19;26.22